createdAt,value
2022-12-25T00:02:05.191Z,2.90
2022-12-25T00:04:31.596Z,2.53
2022-12-25T00:06:59.478Z,2.67
2022-12-25T00:09:29.071Z,2.35
2022-12-25T00:11:56.562Z,5.25
2022-12-25T00:14:23.984Z,2.47
2022-12-25T00:16:50.473Z,2.85
2022-12-25T00:19:16.887Z,2.97
2022-12-25T00:21:43.331Z,2.17
2022-12-25T00:24:09.848Z,2.40
2022-12-25T00:26:36.301Z,2.50
2022-12-25T00:29:02.652Z,2.55
2022-12-25T00:31:29.217Z,2.50
2022-12-25T00:33:56.758Z,2.70
2022-12-25T00:36:23.547Z,2.22
2022-12-25T00:38:49.940Z,2.00
2022-12-25T00:41:39.200Z,2.17
2022-12-25T00:44:06.600Z,2.53
2022-12-25T00:46:33.124Z,2.58
2022-12-25T00:49:02.651Z,2.83
2022-12-25T00:51:29.225Z,3.50
2022-12-25T00:53:55.598Z,3.42
2022-12-25T00:56:21.997Z,3.60
2022-12-25T00:58:48.642Z,3.50
2022-12-25T01:01:15.275Z,3.40
2022-12-25T01:03:41.833Z,2.33
2022-12-25T01:06:12.651Z,2.33
2022-12-25T01:08:59.950Z,2.63
2022-12-25T01:11:26.910Z,2.58
2022-12-25T01:13:53.287Z,2.85
2022-12-25T01:16:19.775Z,2.58
2022-12-25T01:18:46.630Z,2.90
2022-12-25T01:21:20.906Z,3.00
2022-12-25T01:23:50.446Z,3.22
2022-12-25T01:26:18.100Z,3.03
2022-12-25T01:28:44.614Z,3.08
2022-12-25T01:31:13.988Z,2.53
2022-12-25T01:33:42.347Z,2.50
2022-12-25T01:36:28.987Z,2.65
2022-12-25T01:38:55.593Z,3.15
2022-12-25T01:41:24.497Z,2.85
2022-12-25T01:44:14.165Z,3.47
2022-12-25T01:46:41.246Z,2.83
2022-12-25T01:49:22.514Z,3.00
2022-12-25T01:52:18.890Z,3.40
2022-12-25T01:54:59.812Z,3.53
2022-12-25T01:57:30.635Z,3.65
2022-12-25T01:59:58.234Z,4.07
2022-12-25T02:02:25.561Z,4.22
2022-12-25T02:05:30.000Z,3.83
2022-12-25T02:08:01.884Z,4.00
2022-12-25T02:10:28.567Z,4.90
2022-12-25T02:12:55.381Z,4.47
2022-12-25T02:15:26.916Z,4.60
2022-12-25T02:18:12.060Z,4.90
2022-12-25T02:21:03.185Z,4.68
2022-12-25T02:23:42.107Z,4.07
2022-12-25T02:26:47.824Z,3.72
2022-12-25T02:29:25.172Z,3.75
2022-12-25T02:32:07.936Z,4.38
2022-12-25T02:34:45.054Z,4.10
2022-12-25T02:37:56.528Z,4.22
2022-12-25T02:40:40.001Z,4.22
2022-12-25T02:43:33.039Z,3.92
2022-12-25T02:46:22.470Z,4.07
2022-12-25T02:49:15.320Z,3.72
2022-12-25T02:52:04.049Z,4.22
2022-12-25T02:54:53.859Z,5.03
2022-12-25T02:57:43.109Z,4.03
2022-12-25T03:00:29.380Z,4.68
2022-12-25T03:03:17.793Z,3.58
2022-12-25T03:06:04.037Z,4.10
2022-12-25T03:08:36.811Z,4.68
2022-12-25T03:11:25.362Z,4.30
2022-12-25T03:13:55.565Z,4.68
2022-12-25T03:16:41.573Z,4.43
2022-12-25T03:19:27.125Z,5.38
2022-12-25T03:22:15.552Z,5.18
2022-12-25T03:25:00.872Z,4.40
2022-12-25T03:27:31.918Z,4.22
2022-12-25T03:30:17.136Z,4.70
2022-12-25T03:32:58.623Z,4.47
2022-12-25T03:35:46.495Z,4.30
2022-12-25T03:38:49.967Z,4.70
2022-12-25T03:42:02.343Z,4.93
2022-12-25T03:45:18.578Z,4.85
2022-12-25T03:48:07.069Z,4.80
2022-12-25T03:50:57.559Z,5.43
2022-12-25T03:53:49.995Z,5.22
2022-12-25T03:56:36.045Z,4.65
2022-12-25T03:59:24.078Z,4.57
2022-12-25T04:04:55.928Z,4.25
2022-12-25T04:07:40.639Z,5.18
2022-12-25T04:10:26.495Z,5.32
2022-12-25T04:13:11.871Z,4.90
2022-12-25T04:15:56.683Z,4.82
2022-12-25T04:18:41.520Z,5.60
2022-12-25T04:21:26.461Z,4.82
2022-12-25T04:24:11.209Z,4.57
2022-12-25T04:26:55.934Z,4.32
2022-12-25T04:29:40.720Z,5.22
2022-12-25T04:32:25.576Z,5.47
2022-12-25T04:35:10.815Z,5.22
2022-12-25T04:37:37.187Z,5.13
2022-12-25T04:40:05.270Z,4.72
2022-12-25T04:42:31.705Z,4.25
2022-12-25T04:44:58.104Z,4.30
2022-12-25T04:47:24.494Z,4.38
2022-12-25T04:49:50.984Z,4.35
2022-12-25T04:52:17.375Z,4.22
2022-12-25T04:54:43.816Z,4.18
2022-12-25T04:57:10.205Z,4.57
2022-12-25T04:59:36.570Z,5.10
2022-12-25T05:02:03.104Z,5.32
2022-12-25T05:04:29.592Z,4.75
2022-12-25T05:06:55.989Z,5.05
2022-12-25T05:09:22.529Z,5.13
2022-12-25T05:11:49.067Z,5.55
2022-12-25T05:14:15.718Z,4.97
2022-12-25T05:16:42.250Z,5.72
2022-12-25T05:19:09.629Z,5.70
2022-12-25T05:21:36.332Z,6.20
2022-12-25T05:24:02.737Z,7.47
2022-12-25T05:26:29.177Z,7.95
2022-12-25T05:28:56.534Z,7.35
2022-12-25T05:31:23.214Z,6.95
2022-12-25T05:33:51.448Z,8.23
2022-12-25T05:36:18.131Z,8.20
2022-12-25T05:38:44.583Z,7.45
2022-12-25T05:41:11.052Z,7.40
2022-12-25T05:43:37.469Z,7.60
2022-12-25T05:46:09.177Z,8.10
2022-12-25T05:48:37.428Z,7.07
2022-12-25T05:51:12.539Z,7.28
2022-12-25T05:53:39.435Z,7.60
2022-12-25T05:56:07.987Z,7.18
2022-12-25T05:58:35.584Z,8.30
2022-12-25T06:01:02.497Z,7.97
2022-12-25T06:03:29.443Z,6.88
2022-12-25T06:05:55.913Z,7.25
2022-12-25T06:08:22.271Z,7.32
2022-12-25T06:10:49.359Z,7.05
2022-12-25T06:13:15.689Z,7.55
2022-12-25T06:15:42.359Z,7.78
2022-12-25T06:18:08.880Z,7.05
2022-12-25T06:20:35.283Z,7.47
2022-12-25T06:23:02.162Z,8.23
2022-12-25T06:25:28.656Z,8.27
2022-12-25T06:27:55.150Z,8.40
2022-12-25T06:30:21.644Z,7.82
2022-12-25T06:32:48.156Z,7.72
2022-12-25T06:35:14.566Z,7.95
2022-12-25T06:37:40.967Z,8.77
2022-12-25T06:40:08.000Z,8.18
2022-12-25T06:42:34.422Z,8.18
2022-12-25T06:45:00.787Z,8.38
2022-12-25T06:47:27.201Z,7.93
2022-12-25T06:49:53.575Z,7.13
2022-12-25T06:52:20.089Z,7.95
2022-12-25T06:54:47.375Z,7.40
2022-12-25T06:57:13.790Z,7.85
2022-12-25T06:59:40.290Z,7.15
2022-12-25T07:02:21.636Z,7.88
2022-12-25T07:04:48.581Z,6.70
2022-12-25T07:07:15.297Z,6.75
2022-12-25T07:09:42.570Z,7.28
2022-12-25T07:12:20.808Z,8.15
2022-12-25T07:14:49.801Z,8.20
2022-12-25T07:17:17.331Z,8.90
2022-12-25T07:19:45.307Z,10.50
2022-12-25T07:22:12.803Z,9.07
2022-12-25T07:24:39.336Z,9.45
2022-12-25T07:27:06.378Z,7.47
2022-12-25T07:29:32.732Z,9.27
2022-12-25T07:31:59.214Z,8.68
2022-12-25T07:34:25.908Z,6.90
2022-12-25T07:36:54.636Z,6.75
2022-12-25T07:39:21.005Z,8.35
2022-12-25T07:41:47.406Z,7.90
2022-12-25T07:44:13.781Z,7.18
2022-12-25T07:46:40.277Z,6.80
2022-12-25T07:49:06.689Z,7.57
2022-12-25T07:51:33.275Z,7.22
2022-12-25T07:53:59.626Z,7.15
2022-12-25T07:56:26.132Z,7.13
2022-12-25T07:58:52.622Z,6.68
2022-12-25T08:01:22.692Z,6.72
2022-12-25T08:04:02.780Z,6.60
2022-12-25T08:06:34.893Z,5.32
2022-12-25T08:09:10.324Z,5.82
2022-12-25T08:11:37.640Z,5.35
2022-12-25T08:14:08.508Z,5.45
2022-12-25T08:16:35.457Z,5.75
2022-12-25T08:19:01.943Z,6.68
2022-12-25T08:21:28.415Z,6.63
2022-12-25T08:23:54.829Z,5.45
2022-12-25T08:26:23.049Z,5.70
2022-12-25T08:28:50.460Z,5.63
2022-12-25T08:31:23.002Z,5.95
2022-12-25T08:33:51.751Z,5.75
2022-12-25T08:36:18.248Z,6.68
2022-12-25T08:38:45.653Z,6.30
2022-12-25T08:41:15.048Z,5.97
2022-12-25T08:43:41.723Z,6.15
2022-12-25T08:46:08.551Z,6.68
2022-12-25T08:48:35.463Z,5.72
2022-12-25T08:51:02.525Z,5.80
2022-12-25T08:53:29.056Z,5.97
2022-12-25T08:56:06.430Z,6.07
2022-12-25T08:58:33.521Z,6.55
2022-12-25T09:01:00.595Z,5.70
2022-12-25T09:03:27.651Z,6.57
2022-12-25T09:05:54.803Z,7.57
2022-12-25T09:08:21.774Z,6.40
2022-12-25T09:10:49.005Z,6.25
2022-12-25T09:13:15.675Z,5.63
2022-12-25T09:15:42.105Z,5.97
2022-12-25T09:18:08.489Z,4.55
2022-12-25T09:20:34.854Z,5.07
2022-12-25T09:23:01.210Z,4.20
2022-12-25T09:25:27.786Z,5.63
2022-12-25T09:27:56.646Z,4.88
2022-12-25T09:30:23.167Z,5.65
2022-12-25T09:32:49.626Z,4.82
2022-12-25T09:35:18.384Z,4.93
2022-12-25T09:37:45.292Z,4.32
2022-12-25T09:40:21.124Z,5.00
2022-12-25T09:42:49.368Z,5.20
2022-12-25T09:45:25.970Z,4.68
2022-12-25T09:47:56.799Z,4.80
2022-12-25T09:50:38.089Z,5.25
2022-12-25T09:53:12.585Z,5.60
2022-12-25T09:55:48.391Z,5.10
2022-12-25T09:58:14.819Z,4.32
2022-12-25T10:00:46.737Z,4.88
2022-12-25T10:03:44.077Z,4.75
2022-12-25T10:06:20.687Z,3.85
2022-12-25T10:09:11.270Z,4.43
2022-12-25T10:11:49.902Z,4.03
2022-12-25T10:14:23.607Z,4.50
2022-12-25T10:17:02.121Z,4.10
2022-12-25T10:19:56.456Z,3.92
2022-12-25T10:22:42.379Z,3.50
2022-12-25T10:25:17.241Z,3.45
2022-12-25T10:27:43.766Z,3.42
2022-12-25T10:30:15.844Z,3.45
2022-12-25T10:32:43.290Z,3.47
2022-12-25T10:35:18.624Z,3.92
2022-12-25T10:37:52.594Z,3.67
2022-12-25T10:40:39.678Z,3.70
2022-12-25T10:43:16.443Z,3.25
2022-12-25T10:45:47.292Z,3.45
2022-12-25T10:48:25.280Z,4.22
2022-12-25T10:50:53.015Z,3.72
2022-12-25T10:53:26.388Z,3.85
2022-12-25T10:55:58.420Z,3.97
2022-12-25T10:58:25.440Z,3.85
2022-12-25T11:00:59.036Z,3.97
2022-12-25T11:03:30.443Z,3.45
2022-12-25T11:05:57.952Z,3.78
2022-12-25T11:08:27.573Z,3.22
2022-12-25T11:10:57.393Z,4.22
2022-12-25T11:13:29.077Z,3.63
2022-12-25T11:16:15.002Z,3.65
2022-12-25T11:18:48.108Z,3.42
2022-12-25T11:21:22.335Z,3.80
2022-12-25T11:23:55.466Z,3.45
2022-12-25T11:26:21.844Z,3.80
2022-12-25T11:28:51.152Z,3.20
2022-12-25T11:31:23.415Z,2.85
2022-12-25T11:34:05.189Z,3.28
2022-12-25T11:36:45.523Z,3.25
2022-12-25T11:39:16.428Z,3.08
2022-12-25T11:41:43.906Z,2.75
2022-12-25T11:44:28.542Z,3.30
2022-12-25T11:46:56.157Z,2.85
2022-12-25T11:49:23.271Z,2.72
2022-12-25T11:51:53.621Z,2.88
2022-12-25T11:54:24.035Z,3.03
2022-12-25T11:56:52.412Z,2.83
2022-12-25T11:59:26.371Z,2.88
2022-12-25T12:01:58.730Z,3.05
2022-12-25T12:04:42.409Z,3.00
2022-12-25T12:07:26.650Z,3.08
2022-12-25T12:10:18.219Z,2.90
2022-12-25T12:13:04.237Z,2.63
2022-12-25T12:15:44.050Z,2.50
2022-12-25T12:18:30.534Z,2.85
2022-12-25T12:20:58.285Z,2.47
2022-12-25T12:23:25.371Z,2.45
2022-12-25T12:25:52.568Z,2.65
2022-12-25T12:28:26.274Z,3.10
2022-12-25T12:31:02.349Z,2.47
2022-12-25T12:33:34.607Z,2.85
2022-12-25T12:36:03.708Z,2.40
2022-12-25T12:38:32.198Z,2.53
2022-12-25T12:41:04.146Z,2.10
2022-12-25T12:43:48.202Z,2.22
2022-12-25T12:46:27.681Z,2.15
2022-12-25T12:49:21.866Z,2.28
2022-12-25T12:51:49.300Z,1.95
2022-12-25T12:54:24.212Z,2.25
2022-12-25T12:57:06.023Z,2.15
2022-12-25T12:59:44.323Z,2.75
2022-12-25T13:02:29.368Z,2.20
2022-12-25T13:05:34.641Z,2.40
2022-12-25T13:08:27.295Z,2.15
2022-12-25T13:11:22.315Z,2.63
2022-12-25T13:13:52.144Z,2.42
2022-12-25T13:16:36.760Z,2.90
2022-12-25T13:19:12.029Z,2.38
2022-12-25T13:21:38.678Z,2.58
2022-12-25T13:24:17.860Z,2.63
2022-12-25T13:26:44.246Z,2.60
2022-12-25T13:29:36.173Z,2.60
2022-12-25T13:32:05.871Z,2.85
2022-12-25T13:34:40.819Z,2.72
2022-12-25T13:37:10.322Z,3.13
2022-12-25T13:39:39.328Z,2.85
2022-12-25T13:42:09.352Z,2.40
2022-12-25T13:44:44.913Z,2.78
2022-12-25T13:47:22.759Z,2.42
2022-12-25T13:49:51.147Z,2.92
2022-12-25T13:52:42.591Z,2.42
2022-12-25T13:55:11.955Z,2.47
2022-12-25T13:57:41.525Z,2.65
2022-12-25T14:00:17.257Z,3.00
2022-12-25T14:02:45.368Z,2.75
2022-12-25T14:05:41.361Z,2.85
2022-12-25T14:08:22.117Z,2.78
2022-12-25T14:10:52.350Z,2.60
2022-12-25T14:13:22.472Z,2.35
2022-12-25T14:15:50.160Z,2.60
2022-12-25T14:18:18.669Z,3.35
2022-12-25T14:21:21.569Z,3.00
2022-12-25T14:23:50.006Z,2.95
2022-12-25T14:26:20.373Z,2.50
2022-12-25T14:29:13.944Z,2.67
2022-12-25T14:31:47.220Z,2.97
2022-12-25T14:34:18.414Z,3.03
2022-12-25T14:36:45.390Z,3.03
2022-12-25T14:39:31.511Z,2.70
2022-12-25T14:41:58.330Z,3.28
2022-12-25T14:44:42.670Z,3.05
2022-12-25T14:47:20.410Z,3.22
2022-12-25T14:49:48.155Z,3.25
2022-12-25T14:52:37.305Z,3.13
2022-12-25T14:55:07.755Z,3.25
2022-12-25T14:57:39.110Z,3.75
2022-12-25T15:00:23.670Z,3.15
2022-12-25T15:02:53.768Z,3.25
2022-12-25T15:05:24.728Z,3.20
2022-12-25T15:08:10.166Z,4.00
2022-12-25T15:13:25.752Z,3.17
2022-12-25T15:15:57.590Z,3.15
2022-12-25T15:18:27.485Z,3.13
2022-12-25T15:20:55.329Z,3.08
2022-12-25T15:23:22.215Z,3.10
2022-12-25T15:25:48.728Z,2.83
2022-12-25T15:28:15.175Z,3.03
2022-12-25T15:30:41.698Z,2.67
2022-12-25T15:33:14.754Z,3.40
2022-12-25T15:35:41.849Z,5.07
2022-12-25T15:38:09.444Z,3.58
2022-12-25T15:40:35.947Z,3.50
2022-12-25T15:43:06.352Z,3.33
2022-12-25T15:45:38.183Z,3.40
2022-12-25T15:48:04.770Z,3.95
2022-12-25T15:50:32.567Z,2.80
2022-12-25T15:52:58.998Z,3.05
2022-12-25T15:55:26.679Z,2.95
2022-12-25T15:57:54.574Z,4.15
2022-12-25T16:00:23.337Z,3.60
2022-12-25T16:02:54.360Z,3.35
2022-12-25T16:07:56.212Z,3.90
2022-12-25T16:10:22.942Z,3.55
2022-12-25T16:12:51.535Z,3.45
2022-12-25T16:15:19.259Z,3.17
2022-12-25T16:17:51.626Z,3.15
2022-12-25T16:20:22.481Z,3.63
2022-12-25T16:25:24.497Z,3.25
2022-12-25T16:28:00.335Z,3.10
2022-12-25T16:30:27.196Z,3.10
2022-12-25T16:32:56.849Z,3.60
2022-12-25T16:35:24.996Z,3.25
2022-12-25T16:37:59.078Z,3.40
2022-12-25T16:40:29.513Z,4.30
2022-12-25T16:42:56.347Z,3.42
2022-12-25T16:45:26.114Z,3.30
2022-12-25T16:47:56.746Z,3.53
2022-12-25T16:50:24.386Z,3.60
2022-12-25T16:52:56.011Z,2.88
2022-12-25T16:55:30.370Z,3.15
2022-12-25T16:57:57.212Z,3.35
2022-12-25T17:00:24.748Z,3.38
2022-12-25T17:02:51.667Z,5.30
2022-12-25T17:05:20.400Z,8.23
2022-12-25T17:07:49.835Z,9.88
2022-12-25T17:10:18.697Z,6.45
2022-12-25T17:12:47.979Z,5.72
2022-12-25T17:15:15.885Z,3.95
2022-12-25T17:17:43.300Z,4.78
2022-12-25T17:20:12.044Z,4.05
2022-12-25T17:22:42.359Z,4.78
2022-12-25T17:25:17.051Z,4.25
2022-12-25T17:27:45.389Z,4.25
2022-12-25T17:30:17.247Z,5.82
2022-12-25T17:32:44.364Z,6.30
2022-12-25T17:35:10.805Z,5.40
2022-12-25T17:37:37.165Z,4.70
2022-12-25T17:40:04.149Z,5.30
2022-12-25T17:42:30.572Z,6.57
2022-12-25T17:44:57.091Z,4.50
2022-12-25T17:47:23.505Z,4.75
2022-12-25T17:49:50.999Z,4.22
2022-12-25T17:52:17.662Z,4.88
2022-12-25T17:54:44.111Z,5.05
2022-12-25T17:57:10.589Z,5.22
2022-12-25T17:59:36.956Z,4.88
2022-12-25T18:02:03.514Z,4.45
2022-12-25T18:04:29.912Z,5.43
2022-12-25T18:06:56.401Z,5.90
2022-12-25T18:09:22.832Z,9.15
2022-12-25T18:11:49.213Z,5.93
2022-12-25T18:14:16.617Z,4.22
2022-12-25T18:16:45.057Z,4.05
2022-12-25T18:19:12.726Z,3.95
2022-12-25T18:21:39.312Z,4.65
2022-12-25T18:24:07.190Z,6.30
2022-12-25T18:26:34.342Z,6.50
2022-12-25T18:29:00.907Z,5.05
2022-12-25T18:31:30.131Z,4.32
2022-12-25T18:33:58.260Z,4.20
2022-12-25T18:36:25.994Z,3.83
2022-12-25T18:38:54.036Z,3.85
2022-12-25T18:41:22.202Z,3.53
2022-12-25T18:43:52.569Z,4.18
2022-12-25T18:46:23.885Z,4.28
2022-12-25T18:48:53.214Z,4.10
2022-12-25T18:51:19.865Z,4.05
2022-12-25T18:53:48.767Z,4.47
2022-12-25T18:56:17.682Z,3.83
2022-12-25T18:58:45.612Z,3.65
2022-12-25T19:01:18.760Z,4.15
2022-12-25T19:03:46.122Z,3.25
2022-12-25T19:06:21.603Z,3.42
2022-12-25T19:08:48.554Z,3.38
2022-12-25T19:11:16.290Z,2.95
2022-12-25T19:13:43.313Z,3.60
2022-12-25T19:16:10.133Z,2.97
2022-12-25T19:18:37.619Z,3.30
2022-12-25T19:21:06.718Z,2.97
2022-12-25T19:23:33.443Z,3.47
2022-12-25T19:26:00.045Z,4.18
2022-12-25T19:28:26.480Z,4.15
2022-12-25T19:30:54.077Z,4.00
2022-12-25T19:33:21.690Z,3.65
2022-12-25T19:35:48.909Z,3.88
2022-12-25T19:38:15.823Z,3.67
2022-12-25T19:40:59.951Z,3.75
2022-12-25T19:43:32.052Z,3.88
2022-12-25T19:46:01.863Z,3.38
2022-12-25T19:48:28.392Z,3.50
2022-12-25T19:50:54.958Z,3.22
2022-12-25T19:53:23.674Z,3.30
2022-12-25T19:55:52.361Z,3.25
2022-12-25T19:58:20.359Z,3.05
2022-12-25T20:01:07.324Z,3.95
2022-12-25T20:03:41.744Z,3.78
2022-12-25T20:06:19.675Z,3.58
2022-12-25T20:08:47.461Z,3.13
2022-12-25T20:11:14.228Z,3.58
2022-12-25T20:13:40.744Z,3.10
2022-12-25T20:16:08.996Z,3.05
2022-12-25T20:18:37.009Z,3.30
2022-12-25T20:21:06.489Z,3.08
2022-12-25T20:23:33.497Z,3.20
2022-12-25T20:26:04.183Z,3.13
2022-12-25T20:28:32.363Z,4.00
2022-12-25T20:31:08.829Z,3.00
2022-12-25T20:33:39.457Z,3.33
2022-12-25T20:36:09.466Z,3.45
2022-12-25T20:38:37.251Z,3.30
2022-12-25T20:41:29.672Z,3.15
2022-12-25T20:43:58.587Z,3.13
2022-12-25T20:46:26.191Z,2.95
2022-12-25T20:48:53.514Z,3.13
2022-12-25T20:51:27.849Z,3.47
2022-12-25T20:53:55.388Z,3.45
2022-12-25T20:56:25.976Z,3.15
2022-12-25T20:59:00.764Z,3.20
2022-12-25T21:01:32.201Z,3.40
2022-12-25T21:03:59.884Z,3.65
2022-12-25T21:06:28.389Z,3.40
2022-12-25T21:08:57.878Z,3.38
2022-12-25T21:11:26.569Z,3.13
2022-12-25T21:13:54.329Z,3.38
2022-12-25T21:16:22.758Z,3.30
2022-12-25T21:18:51.003Z,3.40
2022-12-25T21:21:17.636Z,3.55
2022-12-25T21:23:45.444Z,3.58
2022-12-25T21:26:26.594Z,3.63
2022-12-25T21:28:57.561Z,4.15
2022-12-25T21:31:24.751Z,3.13
2022-12-25T21:33:51.226Z,3.50
2022-12-25T21:36:24.135Z,2.92
2022-12-25T21:39:05.251Z,3.20
2022-12-25T21:41:33.343Z,3.38
2022-12-25T21:44:00.406Z,3.67
2022-12-25T21:46:27.925Z,3.47
2022-12-25T21:48:55.004Z,3.67
2022-12-25T21:51:46.581Z,3.83
2022-12-25T21:54:14.468Z,3.72
2022-12-25T21:56:44.809Z,3.72
2022-12-25T21:59:17.462Z,3.50
2022-12-25T22:01:44.742Z,3.80
2022-12-25T22:04:12.854Z,3.70
2022-12-25T22:06:58.078Z,3.35
2022-12-25T22:09:24.825Z,3.63
2022-12-25T22:12:10.072Z,3.33
2022-12-25T22:14:56.775Z,3.55
2022-12-25T22:17:44.157Z,3.42
2022-12-25T22:20:21.622Z,4.15
2022-12-25T22:22:48.978Z,4.82
2022-12-25T22:25:16.877Z,4.03
2022-12-25T22:27:46.488Z,4.07
2022-12-25T22:30:16.052Z,4.32
2022-12-25T22:32:42.936Z,4.20
2022-12-25T22:35:10.077Z,4.45
2022-12-25T22:37:36.775Z,4.78
2022-12-25T22:40:05.825Z,5.97
2022-12-25T22:42:32.570Z,5.72
2022-12-25T22:44:59.016Z,5.00
2022-12-25T22:47:25.468Z,4.38
2022-12-25T22:49:51.911Z,5.30
2022-12-25T22:52:18.634Z,4.40
2022-12-25T22:54:44.991Z,4.82
2022-12-25T22:57:11.372Z,4.70
2022-12-25T22:59:37.786Z,4.75
2022-12-25T23:02:04.305Z,5.45
2022-12-25T23:04:30.829Z,4.75
2022-12-25T23:06:57.367Z,4.90
2022-12-25T23:09:27.616Z,4.68
2022-12-25T23:11:58.581Z,5.30
2022-12-25T23:14:41.569Z,4.20
2022-12-25T23:17:31.570Z,4.55
2022-12-25T23:20:18.661Z,4.90
2022-12-25T23:23:05.180Z,5.10
2022-12-25T23:25:50.609Z,4.88
2022-12-25T23:28:39.611Z,5.13
2022-12-25T23:31:06.617Z,5.45
2022-12-25T23:33:33.145Z,4.75
2022-12-25T23:35:59.627Z,4.63
2022-12-25T23:38:25.999Z,5.90
2022-12-25T23:40:52.681Z,5.22
2022-12-25T23:43:19.357Z,5.32
2022-12-25T23:45:45.762Z,5.13
2022-12-25T23:48:12.157Z,5.88
2022-12-25T23:50:38.525Z,4.72
2022-12-25T23:53:04.860Z,4.88
2022-12-25T23:55:32.850Z,5.07
2022-12-25T23:57:59.235Z,5.07
